createdAt,value
2019-02-23T00:01:44.162Z,9.70
2019-02-23T00:06:46.210Z,13.43
2019-02-23T00:11:48.435Z,11.67
2019-02-23T00:16:50.503Z,12.50
2019-02-23T00:21:52.584Z,11.90
2019-02-23T00:26:54.637Z,11.93
2019-02-23T00:31:56.736Z,10.83
2019-02-23T00:36:58.852Z,9.90
2019-02-23T00:42:00.814Z,11.23
2019-02-23T00:47:04.660Z,11.00
2019-02-23T00:52:06.794Z,12.67
2019-02-23T00:57:08.826Z,10.70
2019-02-23T01:02:12.103Z,11.43
2019-02-23T01:07:14.674Z,10.17
2019-02-23T01:12:17.049Z,10.23
2019-02-23T01:17:19.046Z,8.57
2019-02-23T01:22:21.183Z,10.57
2019-02-23T01:27:25.623Z,11.07
2019-02-23T01:32:27.724Z,10.73
2019-02-23T01:37:29.761Z,9.30
2019-02-23T01:42:31.707Z,11.83
2019-02-23T01:47:33.781Z,13.90
2019-02-23T01:52:35.837Z,10.53
2019-02-23T01:57:37.914Z,11.47
2019-02-23T02:02:40.287Z,10.37
2019-02-23T02:07:44.511Z,11.00
2019-02-23T02:12:46.622Z,9.10
2019-02-23T02:17:48.725Z,12.53
2019-02-23T02:22:50.790Z,10.97
2019-02-23T02:27:54.538Z,10.93
2019-02-23T02:32:56.681Z,9.67
2019-02-23T02:37:58.754Z,11.60
2019-02-23T02:43:00.832Z,13.60
2019-02-23T02:48:02.924Z,9.50
2019-02-23T02:53:04.993Z,9.80
2019-02-23T02:58:07.662Z,9.77
2019-02-23T03:03:09.687Z,11.47
2019-02-23T03:08:11.787Z,10.37
2019-02-23T03:13:13.902Z,12.10
2019-02-23T03:18:15.972Z,9.60
2019-02-23T03:23:18.025Z,10.23
2019-02-23T03:28:20.062Z,12.57
2019-02-23T03:33:22.111Z,12.40
2019-02-23T03:38:24.134Z,9.63
2019-02-23T03:43:26.255Z,11.63
2019-02-23T03:48:28.291Z,11.17
2019-02-23T03:53:30.363Z,8.77
2019-02-23T03:58:32.490Z,11.67
2019-02-23T04:03:34.452Z,11.53
2019-02-23T04:08:36.485Z,13.27
2019-02-23T04:13:38.629Z,13.43
2019-02-23T04:18:40.720Z,12.00
2019-02-23T04:23:42.828Z,16.47
2019-02-23T04:28:44.971Z,13.60
2019-02-23T04:33:47.081Z,10.10
2019-02-23T04:38:49.253Z,11.53
2019-02-23T04:43:51.518Z,9.80
2019-02-23T04:48:53.599Z,11.13
2019-02-23T04:53:55.699Z,9.27
2019-02-23T04:58:57.769Z,11.70
2019-02-23T05:03:59.848Z,9.27
2019-02-23T05:09:02.162Z,10.43
2019-02-23T05:14:04.222Z,10.90
2019-02-23T05:19:06.373Z,15.00
2019-02-23T05:24:08.439Z,11.13
2019-02-23T05:29:10.495Z,11.77
2019-02-23T05:34:12.548Z,11.13
2019-02-23T05:39:17.687Z,12.77
2019-02-23T05:44:18.623Z,10.07
2019-02-23T05:49:20.767Z,10.83
2019-02-23T05:54:22.822Z,14.33
2019-02-23T05:59:24.910Z,12.20
2019-02-23T06:04:27.010Z,12.10
2019-02-23T06:09:30.865Z,13.20
2019-02-23T06:14:33.030Z,11.93
2019-02-23T06:19:35.161Z,12.67
2019-02-23T06:24:37.376Z,10.13
2019-02-23T06:29:39.425Z,13.73
2019-02-23T06:34:41.504Z,11.17
2019-02-23T06:39:43.640Z,11.10
2019-02-23T06:44:45.703Z,12.13
2019-02-23T06:49:47.863Z,13.77
2019-02-23T06:54:50.016Z,12.73
2019-02-23T06:59:52.082Z,12.60
2019-02-23T07:04:56.510Z,14.47
2019-02-23T07:09:58.562Z,13.83
2019-02-23T07:15:00.632Z,11.80
2019-02-23T07:20:02.859Z,12.97
2019-02-23T07:25:05.172Z,12.43
2019-02-23T07:30:08.603Z,13.13
2019-02-23T07:35:10.735Z,13.07
2019-02-23T07:40:12.858Z,10.87
2019-02-23T07:45:14.905Z,14.80
2019-02-23T07:50:16.954Z,18.23
2019-02-23T07:55:19.119Z,14.50
2019-02-23T08:00:21.296Z,14.33
2019-02-23T08:05:23.334Z,12.83
2019-02-23T08:10:25.406Z,14.30
2019-02-23T08:15:27.436Z,13.70
2019-02-23T08:20:29.465Z,12.17
2019-02-23T08:25:31.531Z,14.03
2019-02-23T08:30:33.628Z,13.57
2019-02-23T08:35:35.707Z,14.90
2019-02-23T08:40:46.086Z,16.07
2019-02-23T08:46:02.726Z,16.90
2019-02-23T08:51:04.899Z,16.00
2019-02-23T08:56:07.157Z,16.60
2019-02-23T09:01:09.732Z,17.93
2019-02-23T09:06:11.782Z,22.37
2019-02-23T09:11:13.805Z,20.87
2019-02-23T09:16:15.932Z,18.97
2019-02-23T09:21:18.335Z,18.67
2019-02-23T09:26:24.002Z,18.33
2019-02-23T09:31:26.477Z,17.60
2019-02-23T09:36:28.558Z,21.03
2019-02-23T09:41:34.434Z,20.37
2019-02-23T09:46:36.609Z,17.37
2019-02-23T09:51:44.729Z,17.00
2019-02-23T09:56:46.842Z,16.13
2019-02-23T10:01:48.984Z,15.50
2019-02-23T10:06:54.656Z,15.50
2019-02-23T10:11:57.016Z,16.70
2019-02-23T10:16:59.064Z,16.73
2019-02-23T10:22:04.790Z,15.40
2019-02-23T10:27:06.926Z,13.90
2019-02-23T10:32:09.097Z,15.10
2019-02-23T10:37:11.168Z,15.17
2019-02-23T10:42:13.348Z,15.53
2019-02-23T10:47:15.399Z,16.40
2019-02-23T10:52:21.975Z,15.73
2019-02-23T10:57:26.184Z,16.50
2019-02-23T11:02:28.277Z,17.90
2019-02-23T11:07:30.440Z,17.10
2019-02-23T11:12:32.482Z,15.20
2019-02-23T11:17:34.604Z,15.80
2019-02-23T11:22:36.886Z,14.33
2019-02-23T11:27:39.147Z,15.50
2019-02-23T11:32:41.302Z,15.37
2019-02-23T11:37:44.455Z,16.77
2019-02-23T11:42:46.746Z,13.30
2019-02-23T11:47:48.868Z,14.13
2019-02-23T11:52:50.960Z,15.67
2019-02-23T11:57:53.076Z,13.70
2019-02-23T12:02:55.295Z,12.67
2019-02-23T12:07:57.431Z,15.57
2019-02-23T12:12:59.500Z,19.87
2019-02-23T12:18:01.644Z,12.90
2019-02-23T12:23:03.773Z,13.53
2019-02-23T12:28:05.933Z,15.77
2019-02-23T12:33:10.320Z,15.50
2019-02-23T12:38:14.256Z,16.13
2019-02-23T12:43:16.365Z,16.37
2019-02-23T12:48:18.446Z,16.63
2019-02-23T12:53:20.588Z,14.13
2019-02-23T12:58:22.725Z,14.07
2019-02-23T13:03:24.800Z,18.07
2019-02-23T13:08:51.462Z,11.77
2019-02-23T13:14:32.647Z,12.37
2019-02-23T13:20:04.099Z,17.13
2019-02-23T13:25:22.331Z,13.77
2019-02-23T13:30:53.608Z,13.40
2019-02-23T13:36:38.658Z,11.80
2019-02-23T13:42:18.713Z,15.77
2019-02-23T13:48:03.420Z,15.23
2019-02-23T13:53:46.302Z,14.77
2019-02-23T13:59:15.922Z,13.67
2019-02-23T14:04:50.797Z,16.03
2019-02-23T14:10:42.620Z,20.00
2019-02-23T14:16:47.904Z,18.03
2019-02-23T14:22:35.661Z,15.93
2019-02-23T14:28:47.183Z,13.97
2019-02-23T14:34:41.946Z,13.23
2019-02-23T14:40:20.699Z,13.80
2019-02-23T14:46:16.888Z,14.50
2019-02-23T14:52:16.797Z,12.53
2019-02-23T14:58:03.030Z,14.03
2019-02-23T15:03:46.918Z,12.37
2019-02-23T15:09:25.335Z,11.80
2019-02-23T15:15:42.808Z,11.40
2019-02-23T15:21:20.369Z,11.67
2019-02-23T15:27:09.788Z,13.60
2019-02-23T15:32:49.632Z,11.17
2019-02-23T15:38:38.355Z,14.83
2019-02-23T15:44:21.588Z,13.77
2019-02-23T15:49:30.894Z,11.03
2019-02-23T15:54:35.185Z,10.40
2019-02-23T15:59:37.182Z,10.70
2019-02-23T16:04:39.344Z,9.27
2019-02-23T16:09:41.410Z,23.10
2019-02-23T16:14:43.488Z,8.83
2019-02-23T16:19:45.773Z,12.67
2019-02-23T16:24:48.062Z,8.80
2019-02-23T16:29:50.373Z,15.80
2019-02-23T16:34:52.481Z,15.87
2019-02-23T16:39:54.564Z,19.70
2019-02-23T16:45:00.016Z,12.93
2019-02-23T16:50:02.320Z,13.47
2019-02-23T16:55:04.612Z,14.83
2019-02-23T17:00:07.332Z,13.40
2019-02-23T17:05:11.679Z,12.47
2019-02-23T17:10:13.746Z,15.70
2019-02-23T17:15:15.794Z,12.70
2019-02-23T17:20:18.865Z,15.07
2019-02-23T17:25:21.034Z,13.77
2019-02-23T17:30:23.105Z,13.17
2019-02-23T17:35:25.128Z,19.90
2019-02-23T17:40:27.163Z,20.00
2019-02-23T17:45:29.209Z,21.03
2019-02-23T17:50:33.396Z,18.63
2019-02-23T17:55:35.414Z,16.93
2019-02-23T18:00:37.473Z,18.73
2019-02-23T18:05:39.524Z,19.83
2019-02-23T18:10:41.598Z,17.37
2019-02-23T18:15:43.653Z,17.10
2019-02-23T18:20:45.716Z,14.33
2019-02-23T18:25:47.778Z,15.87
2019-02-23T18:30:49.804Z,19.67
2019-02-23T18:35:51.924Z,17.53
2019-02-23T18:40:54.000Z,20.03
2019-02-23T18:45:57.946Z,16.90
2019-02-23T18:51:00.007Z,15.97
2019-02-23T18:56:03.186Z,15.53
2019-02-23T19:01:05.251Z,20.90
2019-02-23T19:06:07.352Z,19.17
2019-02-23T19:11:09.459Z,14.60
2019-02-23T19:16:11.486Z,20.63
2019-02-23T19:21:13.712Z,16.13
2019-02-23T19:26:15.845Z,16.23
2019-02-23T19:31:17.944Z,16.67
2019-02-23T19:36:25.133Z,16.83
2019-02-23T19:41:27.412Z,15.93
2019-02-23T19:46:29.541Z,18.27
2019-02-23T19:51:31.649Z,16.03
2019-02-23T19:56:35.551Z,27.60
2019-02-23T20:01:37.658Z,20.77
2019-02-23T20:06:39.721Z,16.53
2019-02-23T20:11:41.753Z,19.37
2019-02-23T20:16:44.181Z,17.80
2019-02-23T20:21:46.257Z,17.03
2019-02-23T20:26:55.392Z,23.73
2019-02-23T20:31:52.315Z,19.87
2019-02-23T20:36:54.371Z,19.13
2019-02-23T20:41:56.468Z,15.73
2019-02-23T20:46:58.589Z,18.33
2019-02-23T20:52:04.042Z,20.73
2019-02-23T20:57:13.682Z,21.20
2019-02-23T21:02:10.350Z,17.70
2019-02-23T21:07:12.441Z,18.37
2019-02-23T21:12:14.566Z,19.23
2019-02-23T21:17:16.713Z,18.07
2019-02-23T21:22:19.390Z,17.47
2019-02-23T21:27:21.577Z,18.50
2019-02-23T21:32:23.666Z,20.33
2019-02-23T21:37:25.708Z,16.90
2019-02-23T21:42:27.756Z,20.60
2019-02-23T21:47:29.811Z,17.73
2019-02-23T21:52:31.919Z,17.43
2019-02-23T21:57:34.041Z,17.50
2019-02-23T22:02:36.184Z,15.57
2019-02-23T22:07:38.381Z,16.07
2019-02-23T22:12:42.349Z,14.73
2019-02-23T22:17:44.434Z,19.03
2019-02-23T22:22:46.530Z,15.47
2019-02-23T22:27:52.264Z,16.07
2019-02-23T22:32:55.597Z,16.83
2019-02-23T22:37:57.707Z,18.07
2019-02-23T22:42:59.776Z,20.20
2019-02-23T22:48:01.797Z,16.87
2019-02-23T22:53:03.880Z,16.93
2019-02-23T22:58:05.947Z,19.67
2019-02-23T23:03:07.988Z,14.83
2019-02-23T23:08:10.033Z,18.10
2019-02-23T23:13:12.095Z,16.83
2019-02-23T23:18:14.214Z,15.57
2019-02-23T23:23:16.258Z,17.47
2019-02-23T23:28:18.373Z,17.30
2019-02-23T23:33:20.436Z,18.40
2019-02-23T23:38:22.521Z,17.60
2019-02-23T23:43:24.584Z,19.10
2019-02-23T23:48:26.643Z,16.80
2019-02-23T23:53:28.705Z,22.30
2019-02-23T23:58:30.784Z,14.20
